sensor_id;sensor_type;location;lat;lon;timestamp;pressure;altitude;pressure_sealevel;temperature
12061;BMP180;6091;51.432;6.880;2024-03-08T00:00:16;101055.00;;;23.30
12061;BMP180;6091;51.432;6.880;2024-03-08T00:02:47;101055.00;;;23.30
12061;BMP180;6091;51.432;6.880;2024-03-08T00:05:15;101049.00;;;23.30
12061;BMP180;6091;51.432;6.880;2024-03-08T00:07:42;101057.00;;;23.30
12061;BMP180;6091;51.432;6.880;2024-03-08T00:10:12;101040.00;;;23.30
12061;BMP180;6091;51.432;6.880;2024-03-08T00:12:43;101042.00;;;23.30
12061;BMP180;6091;51.432;6.880;2024-03-08T00:15:16;101048.00;;;23.30
12061;BMP180;6091;51.432;6.880;2024-03-08T00:17:46;101049.00;;;23.30
12061;BMP180;6091;51.432;6.880;2024-03-08T00:20:16;101041.00;;;23.30
12061;BMP180;6091;51.432;6.880;2024-03-08T00:22:46;101045.00;;;23.20
12061;BMP180;6091;51.432;6.880;2024-03-08T00:25:13;101041.00;;;23.20
12061;BMP180;6091;51.432;6.880;2024-03-08T00:27:41;101041.00;;;23.20
12061;BMP180;6091;51.432;6.880;2024-03-08T00:30:09;101041.00;;;23.20
12061;BMP180;6091;51.432;6.880;2024-03-08T00:32:36;101045.00;;;23.20
12061;BMP180;6091;51.432;6.880;2024-03-08T00:35:05;101042.00;;;23.20
12061;BMP180;6091;51.432;6.880;2024-03-08T00:37:35;101050.00;;;23.20
12061;BMP180;6091;51.432;6.880;2024-03-08T00:40:03;101041.00;;;23.20
12061;BMP180;6091;51.432;6.880;2024-03-08T00:42:30;101040.00;;;23.20
12061;BMP180;6091;51.432;6.880;2024-03-08T00:44:57;101033.00;;;23.20
12061;BMP180;6091;51.432;6.880;2024-03-08T00:47:25;101035.00;;;23.20
12061;BMP180;6091;51.432;6.880;2024-03-08T00:49:53;101031.00;;;23.10
12061;BMP180;6091;51.432;6.880;2024-03-08T00:52:23;101028.00;;;23.10
12061;BMP180;6091;51.432;6.880;2024-03-08T00:54:53;101025.00;;;23.10
12061;BMP180;6091;51.432;6.880;2024-03-08T00:57:21;101022.00;;;23.10
12061;BMP180;6091;51.432;6.880;2024-03-08T00:59:49;101022.00;;;23.10
12061;BMP180;6091;51.432;6.880;2024-03-08T01:02:16;101018.00;;;23.10
12061;BMP180;6091;51.432;6.880;2024-03-08T01:04:46;101018.00;;;23.10
12061;BMP180;6091;51.432;6.880;2024-03-08T01:07:14;101019.00;;;23.10
12061;BMP180;6091;51.432;6.880;2024-03-08T01:09:42;101006.00;;;23.10
12061;BMP180;6091;51.432;6.880;2024-03-08T01:12:09;101002.00;;;23.10
12061;BMP180;6091;51.432;6.880;2024-03-08T01:14:38;100999.00;;;23.00
12061;BMP180;6091;51.432;6.880;2024-03-08T01:17:05;100994.00;;;23.00
12061;BMP180;6091;51.432;6.880;2024-03-08T01:19:32;101001.00;;;23.10
12061;BMP180;6091;51.432;6.880;2024-03-08T01:22:00;100996.00;;;23.00
12061;BMP180;6091;51.432;6.880;2024-03-08T01:24:28;100995.00;;;23.00
12061;BMP180;6091;51.432;6.880;2024-03-08T01:26:55;100992.00;;;23.00
12061;BMP180;6091;51.432;6.880;2024-03-08T01:29:22;100986.00;;;23.00
12061;BMP180;6091;51.432;6.880;2024-03-08T01:31:49;100989.00;;;23.00
12061;BMP180;6091;51.432;6.880;2024-03-08T01:34:19;100984.00;;;23.00
12061;BMP180;6091;51.432;6.880;2024-03-08T01:36:46;100985.00;;;23.00
12061;BMP180;6091;51.432;6.880;2024-03-08T01:39:14;100986.00;;;23.00
12061;BMP180;6091;51.432;6.880;2024-03-08T01:41:41;100972.00;;;22.90
12061;BMP180;6091;51.432;6.880;2024-03-08T01:44:08;100972.00;;;22.90
12061;BMP180;6091;51.432;6.880;2024-03-08T01:46:36;100973.00;;;22.90
12061;BMP180;6091;51.432;6.880;2024-03-08T01:49:04;100969.00;;;22.90
12061;BMP180;6091;51.432;6.880;2024-03-08T01:51:31;100967.00;;;22.90
12061;BMP180;6091;51.432;6.880;2024-03-08T01:54:01;100965.00;;;22.90
12061;BMP180;6091;51.432;6.880;2024-03-08T01:56:31;100969.00;;;22.90
12061;BMP180;6091;51.432;6.880;2024-03-08T01:58:59;100964.00;;;22.90
12061;BMP180;6091;51.432;6.880;2024-03-08T02:01:28;100959.00;;;22.90
12061;BMP180;6091;51.432;6.880;2024-03-08T02:03:55;100951.00;;;22.90
12061;BMP180;6091;51.432;6.880;2024-03-08T02:06:23;100953.00;;;22.90
12061;BMP180;6091;51.432;6.880;2024-03-08T02:08:50;100955.00;;;22.90
12061;BMP180;6091;51.432;6.880;2024-03-08T02:11:18;100957.00;;;22.80
12061;BMP180;6091;51.432;6.880;2024-03-08T02:13:47;100954.00;;;22.90
12061;BMP180;6091;51.432;6.880;2024-03-08T02:16:22;100949.00;;;22.80
12061;BMP180;6091;51.432;6.880;2024-03-08T02:18:50;100945.00;;;22.80
12061;BMP180;6091;51.432;6.880;2024-03-08T02:21:20;100945.00;;;22.80
12061;BMP180;6091;51.432;6.880;2024-03-08T02:23:50;100944.00;;;22.80
12061;BMP180;6091;51.432;6.880;2024-03-08T02:26:19;100933.00;;;22.80
12061;BMP180;6091;51.432;6.880;2024-03-08T02:28:46;100931.00;;;22.80
12061;BMP180;6091;51.432;6.880;2024-03-08T02:31:14;100929.00;;;22.80
12061;BMP180;6091;51.432;6.880;2024-03-08T02:33:41;100923.00;;;22.80
12061;BMP180;6091;51.432;6.880;2024-03-08T02:36:08;100924.00;;;22.80
12061;BMP180;6091;51.432;6.880;2024-03-08T02:38:35;100922.00;;;22.80
12061;BMP180;6091;51.432;6.880;2024-03-08T02:41:02;100928.00;;;22.80
12061;BMP180;6091;51.432;6.880;2024-03-08T02:43:31;100917.00;;;22.70
12061;BMP180;6091;51.432;6.880;2024-03-08T02:45:58;100925.00;;;22.70
12061;BMP180;6091;51.432;6.880;2024-03-08T02:48:26;100916.00;;;22.70
12061;BMP180;6091;51.432;6.880;2024-03-08T02:50:53;100916.00;;;22.70
12061;BMP180;6091;51.432;6.880;2024-03-08T02:53:21;100912.00;;;22.70
12061;BMP180;6091;51.432;6.880;2024-03-08T02:55:49;100905.00;;;22.70
12061;BMP180;6091;51.432;6.880;2024-03-08T02:58:16;100909.00;;;22.70
12061;BMP180;6091;51.432;6.880;2024-03-08T03:00:43;100907.00;;;22.70
12061;BMP180;6091;51.432;6.880;2024-03-08T03:03:12;100899.00;;;22.70
12061;BMP180;6091;51.432;6.880;2024-03-08T03:05:39;100903.00;;;22.70
12061;BMP180;6091;51.432;6.880;2024-03-08T03:08:14;100896.00;;;22.70
12061;BMP180;6091;51.432;6.880;2024-03-08T03:10:44;100902.00;;;22.60
12061;BMP180;6091;51.432;6.880;2024-03-08T03:13:11;100897.00;;;22.60
12061;BMP180;6091;51.432;6.880;2024-03-08T03:15:39;100891.00;;;22.60
12061;BMP180;6091;51.432;6.880;2024-03-08T03:18:08;100886.00;;;22.60
12061;BMP180;6091;51.432;6.880;2024-03-08T03:20:36;100883.00;;;22.60
12061;BMP180;6091;51.432;6.880;2024-03-08T03:23:10;100879.00;;;22.60
12061;BMP180;6091;51.432;6.880;2024-03-08T03:25:42;100886.00;;;22.60
12061;BMP180;6091;51.432;6.880;2024-03-08T03:28:09;100885.00;;;22.60
12061;BMP180;6091;51.432;6.880;2024-03-08T03:30:38;100884.00;;;22.60
12061;BMP180;6091;51.432;6.880;2024-03-08T03:33:08;100875.00;;;22.60
12061;BMP180;6091;51.432;6.880;2024-03-08T03:35:35;100877.00;;;22.60
12061;BMP180;6091;51.432;6.880;2024-03-08T03:38:04;100880.00;;;22.60
12061;BMP180;6091;51.432;6.880;2024-03-08T03:40:39;100878.00;;;22.50
12061;BMP180;6091;51.432;6.880;2024-03-08T03:43:07;100876.00;;;22.50
12061;BMP180;6091;51.432;6.880;2024-03-08T03:45:39;100867.00;;;22.50
12061;BMP180;6091;51.432;6.880;2024-03-08T03:48:08;100868.00;;;22.50
12061;BMP180;6091;51.432;6.880;2024-03-08T03:50:37;100860.00;;;22.50
12061;BMP180;6091;51.432;6.880;2024-03-08T03:53:06;100865.00;;;22.50
12061;BMP180;6091;51.432;6.880;2024-03-08T03:55:38;100860.00;;;22.50
12061;BMP180;6091;51.432;6.880;2024-03-08T03:58:08;100854.00;;;22.50
12061;BMP180;6091;51.432;6.880;2024-03-08T04:00:38;100861.00;;;22.50
12061;BMP180;6091;51.432;6.880;2024-03-08T04:03:06;100855.00;;;22.50
12061;BMP180;6091;51.432;6.880;2024-03-08T04:05:34;100858.00;;;22.50
12061;BMP180;6091;51.432;6.880;2024-03-08T04:08:01;100859.00;;;22.50
12061;BMP180;6091;51.432;6.880;2024-03-08T04:10:30;100856.00;;;22.40
12061;BMP180;6091;51.432;6.880;2024-03-08T04:12:57;100854.00;;;22.40
12061;BMP180;6091;51.432;6.880;2024-03-08T04:15:24;100849.00;;;22.40
12061;BMP180;6091;51.432;6.880;2024-03-08T04:17:51;100854.00;;;22.40
12061;BMP180;6091;51.432;6.880;2024-03-08T04:20:20;100855.00;;;22.40
12061;BMP180;6091;51.432;6.880;2024-03-08T04:22:48;100847.00;;;22.40
12061;BMP180;6091;51.432;6.880;2024-03-08T04:25:17;100847.00;;;22.40
12061;BMP180;6091;51.432;6.880;2024-03-08T04:27:45;100844.00;;;22.40
12061;BMP180;6091;51.432;6.880;2024-03-08T04:30:14;100847.00;;;22.40
12061;BMP180;6091;51.432;6.880;2024-03-08T04:32:41;100853.00;;;22.40
12061;BMP180;6091;51.432;6.880;2024-03-08T04:35:09;100849.00;;;22.40
12061;BMP180;6091;51.432;6.880;2024-03-08T04:37:37;100850.00;;;22.40
12061;BMP180;6091;51.432;6.880;2024-03-08T04:40:04;100844.00;;;22.40
12061;BMP180;6091;51.432;6.880;2024-03-08T04:42:33;100839.00;;;22.40
12061;BMP180;6091;51.432;6.880;2024-03-08T04:45:00;100834.00;;;22.40
12061;BMP180;6091;51.432;6.880;2024-03-08T04:47:28;100830.00;;;22.40
12061;BMP180;6091;51.432;6.880;2024-03-08T04:49:55;100834.00;;;22.30
12061;BMP180;6091;51.432;6.880;2024-03-08T04:52:25;100823.00;;;22.30
12061;BMP180;6091;51.432;6.880;2024-03-08T04:54:54;100827.00;;;22.30
12061;BMP180;6091;51.432;6.880;2024-03-08T04:57:23;100832.00;;;22.30
12061;BMP180;6091;51.432;6.880;2024-03-08T04:59:50;100828.00;;;22.30
12061;BMP180;6091;51.432;6.880;2024-03-08T05:02:17;100825.00;;;22.30
12061;BMP180;6091;51.432;6.880;2024-03-08T05:04:44;100819.00;;;22.30
12061;BMP180;6091;51.432;6.880;2024-03-08T05:07:11;100815.00;;;22.30
12061;BMP180;6091;51.432;6.880;2024-03-08T05:09:38;100814.00;;;22.30
12061;BMP180;6091;51.432;6.880;2024-03-08T05:12:07;100811.00;;;22.30
12061;BMP180;6091;51.432;6.880;2024-03-08T05:14:35;100812.00;;;22.20
12061;BMP180;6091;51.432;6.880;2024-03-08T05:17:03;100811.00;;;22.30
12061;BMP180;6091;51.432;6.880;2024-03-08T05:19:30;100808.00;;;22.20
12061;BMP180;6091;51.432;6.880;2024-03-08T05:22:01;100813.00;;;22.20
12061;BMP180;6091;51.432;6.880;2024-03-08T05:24:29;100805.00;;;22.20
12061;BMP180;6091;51.432;6.880;2024-03-08T05:26:57;100807.00;;;22.20
12061;BMP180;6091;51.432;6.880;2024-03-08T05:29:26;100799.00;;;22.20
12061;BMP180;6091;51.432;6.880;2024-03-08T05:31:54;100795.00;;;22.20
12061;BMP180;6091;51.432;6.880;2024-03-08T05:34:22;100804.00;;;22.20
12061;BMP180;6091;51.432;6.880;2024-03-08T05:36:50;100797.00;;;22.20
12061;BMP180;6091;51.432;6.880;2024-03-08T05:39:18;100797.00;;;22.20
12061;BMP180;6091;51.432;6.880;2024-03-08T05:41:47;100792.00;;;22.20
12061;BMP180;6091;51.432;6.880;2024-03-08T05:44:16;100792.00;;;22.20
12061;BMP180;6091;51.432;6.880;2024-03-08T05:46:46;100791.00;;;22.20
12061;BMP180;6091;51.432;6.880;2024-03-08T05:49:14;100785.00;;;22.20
12061;BMP180;6091;51.432;6.880;2024-03-08T05:51:42;100788.00;;;22.10
12061;BMP180;6091;51.432;6.880;2024-03-08T05:54:11;100792.00;;;22.10
12061;BMP180;6091;51.432;6.880;2024-03-08T05:56:43;100779.00;;;22.10
12061;BMP180;6091;51.432;6.880;2024-03-08T05:59:12;100782.00;;;22.10
12061;BMP180;6091;51.432;6.880;2024-03-08T06:01:40;100779.00;;;22.10
12061;BMP180;6091;51.432;6.880;2024-03-08T06:04:09;100773.00;;;22.10
12061;BMP180;6091;51.432;6.880;2024-03-08T06:06:39;100779.00;;;22.20
12061;BMP180;6091;51.432;6.880;2024-03-08T06:09:07;100778.00;;;22.20
12061;BMP180;6091;51.432;6.880;2024-03-08T06:11:45;100785.00;;;22.40
12061;BMP180;6091;51.432;6.880;2024-03-08T06:14:13;100773.00;;;22.50
12061;BMP180;6091;51.432;6.880;2024-03-08T06:16:42;100775.00;;;22.70
12061;BMP180;6091;51.432;6.880;2024-03-08T06:19:09;100776.00;;;22.90
12061;BMP180;6091;51.432;6.880;2024-03-08T06:21:36;100776.00;;;23.10
12061;BMP180;6091;51.432;6.880;2024-03-08T06:24:04;100775.00;;;23.40
12061;BMP180;6091;51.432;6.880;2024-03-08T06:26:31;100780.00;;;23.60
12061;BMP180;6091;51.432;6.880;2024-03-08T06:29:00;100776.00;;;23.80
12061;BMP180;6091;51.432;6.880;2024-03-08T06:31:27;100782.00;;;24.10
12061;BMP180;6091;51.432;6.880;2024-03-08T06:33:54;100786.00;;;24.30
12061;BMP180;6091;51.432;6.880;2024-03-08T06:36:26;100795.00;;;24.50
12061;BMP180;6091;51.432;6.880;2024-03-08T06:38:53;100787.00;;;24.70
12061;BMP180;6091;51.432;6.880;2024-03-08T06:41:21;100793.00;;;24.90
12061;BMP180;6091;51.432;6.880;2024-03-08T06:43:49;100787.00;;;25.10
12061;BMP180;6091;51.432;6.880;2024-03-08T06:46:18;100785.00;;;25.30
12061;BMP180;6091;51.432;6.880;2024-03-08T06:48:48;100784.00;;;25.50
12061;BMP180;6091;51.432;6.880;2024-03-08T06:51:18;100785.00;;;25.70
12061;BMP180;6091;51.432;6.880;2024-03-08T06:53:45;100791.00;;;25.90
12061;BMP180;6091;51.432;6.880;2024-03-08T06:56:13;100792.00;;;26.00
12061;BMP180;6091;51.432;6.880;2024-03-08T06:58:40;100793.00;;;26.20
12061;BMP180;6091;51.432;6.880;2024-03-08T07:01:07;100785.00;;;26.30
12061;BMP180;6091;51.432;6.880;2024-03-08T07:03:44;100792.00;;;26.50
12061;BMP180;6091;51.432;6.880;2024-03-08T07:06:11;100789.00;;;26.60
12061;BMP180;6091;51.432;6.880;2024-03-08T07:08:39;100785.00;;;26.70
12061;BMP180;6091;51.432;6.880;2024-03-08T07:11:07;100790.00;;;26.80
12061;BMP180;6091;51.432;6.880;2024-03-08T07:13:34;100796.00;;;26.90
12061;BMP180;6091;51.432;6.880;2024-03-08T07:16:01;100790.00;;;27.00
12061;BMP180;6091;51.432;6.880;2024-03-08T07:18:28;100786.00;;;27.10
12061;BMP180;6091;51.432;6.880;2024-03-08T07:20:57;100790.00;;;27.10
12061;BMP180;6091;51.432;6.880;2024-03-08T07:23:25;100787.00;;;27.20
12061;BMP180;6091;51.432;6.880;2024-03-08T07:26:22;100792.00;;;27.30
12061;BMP180;6091;51.432;6.880;2024-03-08T07:28:49;100791.00;;;27.30
12061;BMP180;6091;51.432;6.880;2024-03-08T07:31:16;100793.00;;;27.30
12061;BMP180;6091;51.432;6.880;2024-03-08T07:33:50;100795.00;;;27.40
12061;BMP180;6091;51.432;6.880;2024-03-08T07:36:18;100783.00;;;27.40
12061;BMP180;6091;51.432;6.880;2024-03-08T07:38:45;100786.00;;;27.40
12061;BMP180;6091;51.432;6.880;2024-03-08T07:41:15;100792.00;;;27.40
12061;BMP180;6091;51.432;6.880;2024-03-08T07:43:43;100784.00;;;27.40
12061;BMP180;6091;51.432;6.880;2024-03-08T07:46:10;100779.00;;;27.30
12061;BMP180;6091;51.432;6.880;2024-03-08T07:48:37;100783.00;;;27.30
12061;BMP180;6091;51.432;6.880;2024-03-08T07:51:07;100771.00;;;27.20
12061;BMP180;6091;51.432;6.880;2024-03-08T07:53:36;100784.00;;;27.20
12061;BMP180;6091;51.432;6.880;2024-03-08T07:56:12;100772.00;;;27.10
12061;BMP180;6091;51.432;6.880;2024-03-08T07:58:40;100766.00;;;27.40
12061;BMP180;6091;51.432;6.880;2024-03-08T08:01:07;100761.00;;;27.40
12061;BMP180;6091;51.432;6.880;2024-03-08T08:03:34;100761.00;;;27.20
12061;BMP180;6091;51.432;6.880;2024-03-08T08:06:04;100746.00;;;27.10
12061;BMP180;6091;51.432;6.880;2024-03-08T08:08:32;100751.00;;;27.00
12061;BMP180;6091;51.432;6.880;2024-03-08T08:10:59;100746.00;;;27.00
12061;BMP180;6091;51.432;6.880;2024-03-08T08:13:26;100737.00;;;27.00
12061;BMP180;6091;51.432;6.880;2024-03-08T08:15:54;100739.00;;;26.90
12061;BMP180;6091;51.432;6.880;2024-03-08T08:18:26;100740.00;;;26.90
12061;BMP180;6091;51.432;6.880;2024-03-08T08:20:59;100741.00;;;26.90
12061;BMP180;6091;51.432;6.880;2024-03-08T08:23:30;100739.00;;;26.90
12061;BMP180;6091;51.432;6.880;2024-03-08T08:25:57;100732.00;;;26.90
12061;BMP180;6091;51.432;6.880;2024-03-08T08:28:24;100728.00;;;27.00
12061;BMP180;6091;51.432;6.880;2024-03-08T08:30:51;100728.00;;;27.00
12061;BMP180;6091;51.432;6.880;2024-03-08T08:33:19;100717.00;;;27.00
12061;BMP180;6091;51.432;6.880;2024-03-08T08:35:46;100717.00;;;27.10
12061;BMP180;6091;51.432;6.880;2024-03-08T08:38:14;100706.00;;;27.10
12061;BMP180;6091;51.432;6.880;2024-03-08T08:40:42;100712.00;;;27.40
12061;BMP180;6091;51.432;6.880;2024-03-08T08:43:09;100703.00;;;27.30
12061;BMP180;6091;51.432;6.880;2024-03-08T08:45:36;100698.00;;;27.30
12061;BMP180;6091;51.432;6.880;2024-03-08T08:48:06;100695.00;;;27.30
12061;BMP180;6091;51.432;6.880;2024-03-08T08:50:33;100693.00;;;27.30
12061;BMP180;6091;51.432;6.880;2024-03-08T08:53:01;100695.00;;;27.30
12061;BMP180;6091;51.432;6.880;2024-03-08T08:55:30;100693.00;;;27.40
12061;BMP180;6091;51.432;6.880;2024-03-08T08:57:58;100681.00;;;27.40
12061;BMP180;6091;51.432;6.880;2024-03-08T09:00:25;100688.00;;;27.80
12061;BMP180;6091;51.432;6.880;2024-03-08T09:02:55;100681.00;;;27.60
12061;BMP180;6091;51.432;6.880;2024-03-08T09:05:25;100688.00;;;27.50
12061;BMP180;6091;51.432;6.880;2024-03-08T09:07:53;100696.00;;;27.50
12061;BMP180;6091;51.432;6.880;2024-03-08T09:10:21;100685.00;;;27.50
12061;BMP180;6091;51.432;6.880;2024-03-08T09:12:48;100678.00;;;27.50
12061;BMP180;6091;51.432;6.880;2024-03-08T09:15:16;100663.00;;;27.80
12061;BMP180;6091;51.432;6.880;2024-03-08T09:17:47;100665.00;;;27.60
12061;BMP180;6091;51.432;6.880;2024-03-08T09:20:15;100670.00;;;27.90
12061;BMP180;6091;51.432;6.880;2024-03-08T09:22:44;100659.00;;;27.70
12061;BMP180;6091;51.432;6.880;2024-03-08T09:25:13;100657.00;;;27.60
12061;BMP180;6091;51.432;6.880;2024-03-08T09:27:41;100667.00;;;27.60
12061;BMP180;6091;51.432;6.880;2024-03-08T09:30:09;100667.00;;;27.50
12061;BMP180;6091;51.432;6.880;2024-03-08T09:32:41;100655.00;;;27.60
12061;BMP180;6091;51.432;6.880;2024-03-08T09:35:10;100656.00;;;27.50
12061;BMP180;6091;51.432;6.880;2024-03-08T09:37:38;100651.00;;;27.50
12061;BMP180;6091;51.432;6.880;2024-03-08T09:40:06;100651.00;;;27.90
12061;BMP180;6091;51.432;6.880;2024-03-08T09:42:38;100648.00;;;27.60
12061;BMP180;6091;51.432;6.880;2024-03-08T09:45:11;100640.00;;;27.60
12061;BMP180;6091;51.432;6.880;2024-03-08T09:47:44;100621.00;;;27.60
12061;BMP180;6091;51.432;6.880;2024-03-08T09:50:12;100624.00;;;27.80
12061;BMP180;6091;51.432;6.880;2024-03-08T09:52:49;100629.00;;;27.90
12061;BMP180;6091;51.432;6.880;2024-03-08T09:55:18;100622.00;;;27.90
12061;BMP180;6091;51.432;6.880;2024-03-08T09:57:52;100639.00;;;27.70
12061;BMP180;6091;51.432;6.880;2024-03-08T10:00:39;100618.00;;;27.70
12061;BMP180;6091;51.432;6.880;2024-03-08T10:03:08;100606.00;;;27.70
12061;BMP180;6091;51.432;6.880;2024-03-08T10:05:41;100602.00;;;27.90
12061;BMP180;6091;51.432;6.880;2024-03-08T10:08:08;100605.00;;;27.80
12061;BMP180;6091;51.432;6.880;2024-03-08T10:10:39;100606.00;;;27.80
12061;BMP180;6091;51.432;6.880;2024-03-08T10:13:07;100603.00;;;27.70
12061;BMP180;6091;51.432;6.880;2024-03-08T10:15:36;100597.00;;;27.80
12061;BMP180;6091;51.432;6.880;2024-03-08T10:18:03;100594.00;;;27.80
12061;BMP180;6091;51.432;6.880;2024-03-08T10:20:33;100598.00;;;27.80
12061;BMP180;6091;51.432;6.880;2024-03-08T10:23:02;100590.00;;;27.90
12061;BMP180;6091;51.432;6.880;2024-03-08T10:25:37;100580.00;;;27.90
12061;BMP180;6091;51.432;6.880;2024-03-08T10:28:06;100578.00;;;27.90
12061;BMP180;6091;51.432;6.880;2024-03-08T10:30:33;100566.00;;;28.00
12061;BMP180;6091;51.432;6.880;2024-03-08T10:33:01;100575.00;;;28.00
12061;BMP180;6091;51.432;6.880;2024-03-08T10:35:32;100574.00;;;28.10
12061;BMP180;6091;51.432;6.880;2024-03-08T10:38:01;100560.00;;;28.20
12061;BMP180;6091;51.432;6.880;2024-03-08T10:40:38;100560.00;;;28.30
12061;BMP180;6091;51.432;6.880;2024-03-08T10:43:23;100556.00;;;28.40
12061;BMP180;6091;51.432;6.880;2024-03-08T10:49:22;100558.00;;;29.10
12061;BMP180;6091;51.432;6.880;2024-03-08T10:51:53;100551.00;;;29.50
12061;BMP180;6091;51.432;6.880;2024-03-08T10:54:23;100545.00;;;30.40
12061;BMP180;6091;51.432;6.880;2024-03-08T10:56:52;100547.00;;;30.50
12061;BMP180;6091;51.432;6.880;2024-03-08T10:59:21;100534.00;;;30.70
12061;BMP180;6091;51.432;6.880;2024-03-08T11:01:50;100542.00;;;30.90
12061;BMP180;6091;51.432;6.880;2024-03-08T11:04:18;100539.00;;;31.10
12061;BMP180;6091;51.432;6.880;2024-03-08T11:06:51;100540.00;;;31.20
12061;BMP180;6091;51.432;6.880;2024-03-08T11:09:38;100522.00;;;31.40
12061;BMP180;6091;51.432;6.880;2024-03-08T11:12:26;100529.00;;;31.60
12061;BMP180;6091;51.432;6.880;2024-03-08T11:15:00;100518.00;;;31.70
12061;BMP180;6091;51.432;6.880;2024-03-08T11:20:29;100513.00;;;31.90
12061;BMP180;6091;51.432;6.880;2024-03-08T11:23:04;100513.00;;;32.00
12061;BMP180;6091;51.432;6.880;2024-03-08T11:25:40;100504.00;;;32.10
12061;BMP180;6091;51.432;6.880;2024-03-08T11:28:24;100502.00;;;32.20
12061;BMP180;6091;51.432;6.880;2024-03-08T11:33:31;100491.00;;;32.80
12061;BMP180;6091;51.432;6.880;2024-03-08T11:36:11;100488.00;;;32.70
12061;BMP180;6091;51.432;6.880;2024-03-08T11:38:44;100481.00;;;32.70
12061;BMP180;6091;51.432;6.880;2024-03-08T11:41:11;100485.00;;;32.80
12061;BMP180;6091;51.432;6.880;2024-03-08T11:43:45;100485.00;;;33.00
12061;BMP180;6091;51.432;6.880;2024-03-08T11:46:17;100484.00;;;33.40
12061;BMP180;6091;51.432;6.880;2024-03-08T11:48:47;100482.00;;;33.30
12061;BMP180;6091;51.432;6.880;2024-03-08T11:51:15;100476.00;;;33.40
12061;BMP180;6091;51.432;6.880;2024-03-08T11:53:46;100478.00;;;33.40
12061;BMP180;6091;51.432;6.880;2024-03-08T11:56:14;100476.00;;;33.50
12061;BMP180;6091;51.432;6.880;2024-03-08T11:58:56;100473.00;;;33.70
12061;BMP180;6091;51.432;6.880;2024-03-08T12:01:27;100462.00;;;33.70
12061;BMP180;6091;51.432;6.880;2024-03-08T12:03:57;100457.00;;;33.80
12061;BMP180;6091;51.432;6.880;2024-03-08T12:06:36;100454.00;;;33.90
12061;BMP180;6091;51.432;6.880;2024-03-08T12:09:11;100443.00;;;34.00
12061;BMP180;6091;51.432;6.880;2024-03-08T12:11:40;100455.00;;;34.10
12061;BMP180;6091;51.432;6.880;2024-03-08T12:14:08;100445.00;;;34.20
12061;BMP180;6091;51.432;6.880;2024-03-08T12:16:37;100437.00;;;34.20
12061;BMP180;6091;51.432;6.880;2024-03-08T12:19:05;100427.00;;;34.30
12061;BMP180;6091;51.432;6.880;2024-03-08T12:21:33;100427.00;;;34.30
12061;BMP180;6091;51.432;6.880;2024-03-08T12:24:07;100422.00;;;34.30
12061;BMP180;6091;51.432;6.880;2024-03-08T12:26:41;100415.00;;;34.30
12061;BMP180;6091;51.432;6.880;2024-03-08T12:29:24;100410.00;;;34.30
12061;BMP180;6091;51.432;6.880;2024-03-08T12:31:56;100401.00;;;34.30
12061;BMP180;6091;51.432;6.880;2024-03-08T12:34:26;100404.00;;;34.40
12061;BMP180;6091;51.432;6.880;2024-03-08T12:36:55;100397.00;;;34.40
12061;BMP180;6091;51.432;6.880;2024-03-08T12:39:24;100389.00;;;34.40
12061;BMP180;6091;51.432;6.880;2024-03-08T12:41:56;100383.00;;;34.40
12061;BMP180;6091;51.432;6.880;2024-03-08T12:44:27;100379.00;;;34.30
12061;BMP180;6091;51.432;6.880;2024-03-08T12:46:56;100374.00;;;34.30
12061;BMP180;6091;51.432;6.880;2024-03-08T12:49:27;100368.00;;;34.30
12061;BMP180;6091;51.432;6.880;2024-03-08T12:51:54;100368.00;;;34.30
12061;BMP180;6091;51.432;6.880;2024-03-08T12:54:25;100361.00;;;34.20
12061;BMP180;6091;51.432;6.880;2024-03-08T12:56:53;100364.00;;;34.20
12061;BMP180;6091;51.432;6.880;2024-03-08T12:59:21;100352.00;;;34.20
12061;BMP180;6091;51.432;6.880;2024-03-08T13:01:53;100350.00;;;34.20
12061;BMP180;6091;51.432;6.880;2024-03-08T13:04:22;100347.00;;;34.20
12061;BMP180;6091;51.432;6.880;2024-03-08T13:06:50;100338.00;;;34.20
12061;BMP180;6091;51.432;6.880;2024-03-08T13:09:22;100341.00;;;34.20
12061;BMP180;6091;51.432;6.880;2024-03-08T13:11:52;100336.00;;;34.20
12061;BMP180;6091;51.432;6.880;2024-03-08T13:14:22;100348.00;;;34.20
12061;BMP180;6091;51.432;6.880;2024-03-08T13:16:49;100332.00;;;34.20
12061;BMP180;6091;51.432;6.880;2024-03-08T13:19:18;100333.00;;;34.10
12061;BMP180;6091;51.432;6.880;2024-03-08T13:21:49;100324.00;;;34.10
12061;BMP180;6091;51.432;6.880;2024-03-08T13:24:16;100316.00;;;34.00
12061;BMP180;6091;51.432;6.880;2024-03-08T13:26:47;100315.00;;;33.90
12061;BMP180;6091;51.432;6.880;2024-03-08T13:29:15;100309.00;;;33.90
12061;BMP180;6091;51.432;6.880;2024-03-08T13:31:42;100297.00;;;33.80
12061;BMP180;6091;51.432;6.880;2024-03-08T13:34:10;100307.00;;;33.70
12061;BMP180;6091;51.432;6.880;2024-03-08T13:36:38;100299.00;;;33.50
12061;BMP180;6091;51.432;6.880;2024-03-08T13:39:11;100299.00;;;33.20
12061;BMP180;6091;51.432;6.880;2024-03-08T13:41:42;100286.00;;;32.90
12061;BMP180;6091;51.432;6.880;2024-03-08T13:44:11;100281.00;;;32.50
12061;BMP180;6091;51.432;6.880;2024-03-08T13:46:39;100278.00;;;32.20
12061;BMP180;6091;51.432;6.880;2024-03-08T13:49:07;100265.00;;;31.90
12061;BMP180;6091;51.432;6.880;2024-03-08T13:51:36;100265.00;;;31.70
12061;BMP180;6091;51.432;6.880;2024-03-08T13:54:04;100259.00;;;31.50
12061;BMP180;6091;51.432;6.880;2024-03-08T13:56:34;100247.00;;;31.30
12061;BMP180;6091;51.432;6.880;2024-03-08T13:59:01;100240.00;;;31.30
12061;BMP180;6091;51.432;6.880;2024-03-08T14:01:30;100238.00;;;31.00
12061;BMP180;6091;51.432;6.880;2024-03-08T14:03:57;100235.00;;;30.80
12061;BMP180;6091;51.432;6.880;2024-03-08T14:06:25;100236.00;;;30.70
12061;BMP180;6091;51.432;6.880;2024-03-08T14:08:53;100233.00;;;30.60
12061;BMP180;6091;51.432;6.880;2024-03-08T14:11:26;100223.00;;;30.50
12061;BMP180;6091;51.432;6.880;2024-03-08T14:13:55;100209.00;;;30.40
12061;BMP180;6091;51.432;6.880;2024-03-08T14:16:22;100216.00;;;30.40
12061;BMP180;6091;51.432;6.880;2024-03-08T14:18:50;100209.00;;;30.30
12061;BMP180;6091;51.432;6.880;2024-03-08T14:21:17;100202.00;;;30.30
12061;BMP180;6091;51.432;6.880;2024-03-08T14:23:45;100197.00;;;30.30
12061;BMP180;6091;51.432;6.880;2024-03-08T14:26:12;100206.00;;;30.30
12061;BMP180;6091;51.432;6.880;2024-03-08T14:28:39;100205.00;;;30.20